Time;durP1;ratioP1;P1;durP2;ratioP2;P2;SDS_P1;SDS_P2;PMS_P1;PMS_P2;Temp;Humidity;BMP_temperature;BMP_pressure;BME280_temperature;BME280_humidity;BME280_pressure;Samples;Min_cycle;Max_cycle;Signal;HPM_P1;HPM_P2
2024/03/18 00:02:03;;;;;;;0.65;0.20;;;17.80;60.50;;;;;;6184043;23;20164;-83
2024/03/18 00:04:28;;;;;;;0.20;0.20;;;17.80;60.50;;;;;;6157771;23;20233;-83
2024/03/18 00:06:55;;;;;;;0.63;0.20;;;17.80;60.50;;;;;;6208469;23;20594;-84
2024/03/18 00:09:22;;;;;;;1.20;0.20;;;17.90;60.70;;;;;;6133094;23;20181;-84
2024/03/18 00:11:49;;;;;;;0.50;0.20;;;17.80;60.70;;;;;;6184659;23;20155;-83
2024/03/18 00:14:15;;;;;;;0.32;0.30;;;17.80;60.50;;;;;;6188598;23;20158;-83
2024/03/18 00:16:43;;;;;;;0.70;0.22;;;17.80;60.70;;;;;;6188993;23;20184;-83
2024/03/18 00:19:10;;;;;;;0.20;0.13;;;17.80;60.80;;;;;;6133543;23;20165;-84
2024/03/18 00:21:38;;;;;;;0.43;0.30;;;17.80;60.60;;;;;;6159493;23;20261;-84
2024/03/18 00:24:12;;;;;;;0.82;0.35;;;17.80;60.80;;;;;;6133868;23;20257;-83
2024/03/18 00:26:37;;;;;;;0.98;0.30;;;17.80;60.70;;;;;;6133564;23;20161;-83
2024/03/18 00:29:04;;;;;;;0.88;0.20;;;17.70;60.40;;;;;;6183595;23;20171;-83
2024/03/18 00:31:30;;;;;;;0.30;0.30;;;17.80;60.50;;;;;;6133201;23;20193;-83
2024/03/18 00:33:56;;;;;;;0.30;0.22;;;17.80;60.00;;;;;;6158460;23;20217;-83
2024/03/18 00:36:22;;;;;;;0.57;0.20;;;17.80;60.40;;;;;;6184673;23;20585;-84
2024/03/18 00:38:50;;;;;;;1.08;0.28;;;17.80;60.50;;;;;;6159144;23;20229;-84
2024/03/18 00:43:56;;;;;;;0.60;0.22;;;17.80;60.30;;;;;;6184798;23;20138;-84
2024/03/18 00:46:22;;;;;;;1.60;0.30;;;17.80;60.50;;;;;;6183614;23;20174;-84
2024/03/18 00:48:48;;;;;;;1.27;0.40;;;17.70;60.40;;;;;;6158372;23;20151;-84
2024/03/18 00:51:14;;;;;;;0.30;0.20;;;17.80;60.50;;;;;;6183928;23;20151;-84
2024/03/18 00:53:41;;;;;;;0.20;0.20;;;17.80;60.50;;;;;;6183109;23;20146;-84
2024/03/18 00:56:10;;;;;;;0.40;0.20;;;17.70;60.40;;;;;;6183234;23;20210;-84
2024/03/18 00:58:36;;;;;;;1.65;0.20;;;17.80;60.10;;;;;;6133164;23;20151;-84
2024/03/18 01:01:02;;;;;;;0.75;0.38;;;17.80;60.50;;;;;;6183412;23;20153;-84
2024/03/18 01:03:29;;;;;;;1.08;0.30;;;17.70;60.50;;;;;;6183366;23;20570;-84
2024/03/18 01:05:56;;;;;;;0.95;0.28;;;17.80;60.40;;;;;;6183346;23;20135;-84
2024/03/18 01:08:22;;;;;;;0.75;0.32;;;17.70;60.30;;;;;;6184851;23;20131;-84
2024/03/18 01:10:48;;;;;;;0.98;0.30;;;17.80;60.30;;;;;;6184810;23;20238;-84
2024/03/18 01:13:16;;;;;;;0.65;0.30;;;17.80;60.50;;;;;;6184955;23;20138;-84
2024/03/18 01:15:42;;;;;;;0.28;0.20;;;17.80;60.40;;;;;;6183160;23;20233;-84
2024/03/18 01:18:09;;;;;;;0.30;0.20;;;17.70;60.40;;;;;;6182869;23;20154;-84
2024/03/18 01:20:36;;;;;;;0.38;0.25;;;17.70;60.30;;;;;;6182717;23;20146;-84
2024/03/18 01:23:05;;;;;;;0.88;0.30;;;17.80;60.20;;;;;;6183148;23;20139;-84
2024/03/18 01:25:35;;;;;;;0.80;0.30;;;17.80;60.10;;;;;;6157460;23;20166;-83
2024/03/18 01:28:04;;;;;;;0.65;0.30;;;17.70;60.30;;;;;;6133122;23;20166;-84
2024/03/18 01:30:33;;;;;;;0.30;0.30;;;17.70;60.40;;;;;;6157164;23;20197;-83
2024/03/18 01:33:02;;;;;;;0.68;0.30;;;17.80;60.60;;;;;;6157227;23;20205;-83
2024/03/18 01:35:33;;;;;;;0.30;0.20;;;17.70;60.20;;;;;;6133314;23;20205;-83
2024/03/18 01:38:00;;;;;;;0.65;0.30;;;17.70;60.30;;;;;;6158289;23;20597;-83
2024/03/18 01:40:26;;;;;;;0.20;0.20;;;17.70;60.10;;;;;;6184821;23;20138;-84
2024/03/18 01:42:52;;;;;;;0.40;0.30;;;17.80;60.30;;;;;;6158269;23;20191;-83
2024/03/18 01:45:23;;;;;;;0.60;0.20;;;17.70;60.30;;;;;;6183541;23;20143;-83
2024/03/18 01:47:51;;;;;;;0.45;0.40;;;17.70;60.50;;;;;;6184849;23;20134;-84
2024/03/18 01:50:18;;;;;;;0.47;0.20;;;17.60;60.50;;;;;;6160175;23;20175;-84
2024/03/18 01:52:45;;;;;;;0.22;0.20;;;17.70;60.40;;;;;;6185106;23;20170;-84
2024/03/18 01:55:11;;;;;;;0.30;0.20;;;17.60;60.40;;;;;;6183968;23;20622;-84
2024/03/18 01:57:41;;;;;;;0.25;0.15;;;17.60;60.50;;;;;;6185232;23;20197;-84
2024/03/18 02:00:15;;;;;;;0.30;0.20;;;17.70;60.50;;;;;;6159253;23;20162;-84
2024/03/18 02:02:41;;;;;;;0.85;0.22;;;17.70;60.40;;;;;;6186645;23;20146;-84
2024/03/18 02:05:07;;;;;;;1.70;0.20;;;17.60;60.20;;;;;;6184870;23;20147;-85
2024/03/18 02:07:35;;;;;;;0.63;0.22;;;17.70;60.30;;;;;;6159950;23;20672;-84
2024/03/18 02:10:01;;;;;;;0.77;0.28;;;17.60;60.60;;;;;;6134566;23;20186;-84
2024/03/18 02:12:29;;;;;;;0.45;0.30;;;17.70;60.90;;;;;;6184746;23;20143;-84
2024/03/18 02:14:56;;;;;;;0.45;0.30;;;17.70;60.50;;;;;;6158671;23;20161;-84
2024/03/18 02:17:23;;;;;;;0.70;0.22;;;17.60;60.40;;;;;;6158756;23;20158;-84
2024/03/18 02:19:49;;;;;;;1.08;0.28;;;17.60;60.30;;;;;;6184436;23;20242;-84
2024/03/18 02:22:15;;;;;;;0.45;0.22;;;17.60;60.10;;;;;;6186610;23;20187;-84
2024/03/18 02:24:41;;;;;;;1.00;0.20;;;17.70;60.40;;;;;;6185048;23;20139;-84
2024/03/18 02:27:08;;;;;;;0.70;0.20;;;17.60;60.00;;;;;;6160238;23;20477;-84
2024/03/18 02:29:33;;;;;;;0.20;0.20;;;17.60;60.20;;;;;;6184568;23;20624;-84
2024/03/18 02:31:59;;;;;;;0.40;0.25;;;17.60;60.60;;;;;;6184318;23;20131;-84
2024/03/18 02:34:25;;;;;;;0.52;0.30;;;17.60;60.40;;;;;;6184560;23;20516;-84
2024/03/18 02:36:52;;;;;;;0.90;0.28;;;17.60;60.40;;;;;;6184563;23;20142;-84
2024/03/18 02:39:22;;;;;;;0.52;0.30;;;17.60;60.30;;;;;;6159985;23;20466;-84
2024/03/18 02:41:49;;;;;;;0.30;0.30;;;17.60;60.30;;;;;;6160471;23;20237;-84
2024/03/18 02:44:14;;;;;;;0.43;0.40;;;17.60;60.40;;;;;;6184408;23;20241;-84
2024/03/18 02:46:40;;;;;;;0.30;0.15;;;17.60;60.10;;;;;;6184611;23;20193;-84
2024/03/18 02:49:06;;;;;;;1.42;0.30;;;17.60;60.20;;;;;;6185724;23;20166;-83
2024/03/18 02:51:32;;;;;;;1.40;0.40;;;17.60;60.50;;;;;;6184335;23;20154;-84
2024/03/18 02:53:57;;;;;;;0.30;0.25;;;17.60;60.30;;;;;;6183375;23;20490;-85
2024/03/18 02:56:23;;;;;;;0.28;0.20;;;17.60;60.40;;;;;;6159943;23;20151;-83
2024/03/18 02:58:49;;;;;;;1.08;0.20;;;17.60;60.40;;;;;;6184098;23;20570;-85
2024/03/18 03:01:14;;;;;;;0.20;0.20;;;17.60;60.60;;;;;;6186256;23;20570;-84
2024/03/18 03:03:40;;;;;;;1.38;0.30;;;17.60;60.20;;;;;;6184707;23;20558;-84
2024/03/18 03:06:07;;;;;;;0.30;0.20;;;17.60;60.10;;;;;;6184004;23;20589;-84
2024/03/18 03:08:33;;;;;;;0.65;0.30;;;17.60;60.20;;;;;;6184016;23;20239;-84
2024/03/18 03:11:06;;;;;;;0.75;0.25;;;17.60;60.50;;;;;;6184142;23;20625;-84
2024/03/18 03:13:32;;;;;;;0.85;0.30;;;17.50;60.30;;;;;;6186112;23;20123;-85
2024/03/18 03:15:59;;;;;;;0.55;0.20;;;17.50;60.50;;;;;;6184224;23;20134;-85
2024/03/18 03:18:25;;;;;;;0.40;0.20;;;17.50;60.50;;;;;;6185770;23;20209;-84
2024/03/18 03:20:54;;;;;;;0.85;0.32;;;17.50;60.30;;;;;;6184262;23;20162;-84
2024/03/18 03:23:21;;;;;;;0.28;0.20;;;17.60;60.10;;;;;;6184101;23;20559;-84
2024/03/18 03:25:48;;;;;;;0.57;0.22;;;17.60;60.10;;;;;;6159239;23;20159;-85
2024/03/18 03:28:17;;;;;;;0.20;0.20;;;17.60;60.10;;;;;;6159938;23;20182;-84
2024/03/18 03:30:44;;;;;;;1.27;0.40;;;17.60;60.10;;;;;;6183796;23;20167;-84
2024/03/18 03:33:10;;;;;;;0.47;0.25;;;17.50;60.00;;;;;;6159202;23;20198;-84
2024/03/18 03:35:35;;;;;;;0.93;0.20;;;17.60;60.10;;;;;;6184059;23;20193;-83
2024/03/18 03:38:01;;;;;;;0.68;0.45;;;17.50;60.30;;;;;;6183994;23;20162;-84
2024/03/18 03:40:27;;;;;;;0.50;0.20;;;17.60;60.30;;;;;;6183992;23;20135;-83
2024/03/18 03:42:54;;;;;;;1.83;0.30;;;17.50;60.10;;;;;;6184033;23;20558;-84
2024/03/18 03:45:24;;;;;;;0.20;0.20;;;17.50;60.10;;;;;;6183812;23;20159;-83
2024/03/18 03:47:52;;;;;;;0.35;0.20;;;17.50;60.20;;;;;;6159836;23;20167;-84
2024/03/18 03:50:18;;;;;;;0.30;0.30;;;17.50;59.90;;;;;;6159269;23;20170;-84
2024/03/18 03:52:44;;;;;;;0.25;0.25;;;17.60;60.10;;;;;;6159041;23;20644;-84
2024/03/18 03:55:12;;;;;;;1.00;0.30;;;17.60;60.20;;;;;;6182716;23;20193;-84
2024/03/18 03:57:38;;;;;;;0.60;0.25;;;17.60;60.10;;;;;;6183785;23;20131;-84
2024/03/18 04:00:11;;;;;;;0.73;0.30;;;17.60;59.80;;;;;;6185323;23;20151;-84
2024/03/18 04:02:37;;;;;;;0.28;0.20;;;17.50;60.00;;;;;;6184135;23;20628;-84
2024/03/18 04:05:05;;;;;;;0.20;0.20;;;17.50;60.30;;;;;;6158822;23;20146;-84
2024/03/18 04:07:31;;;;;;;0.25;0.20;;;17.60;60.30;;;;;;6183730;23;20134;-84
2024/03/18 04:09:57;;;;;;;0.88;0.28;;;17.50;60.30;;;;;;6183729;23;20197;-84
2024/03/18 04:12:23;;;;;;;0.22;0.22;;;17.50;60.10;;;;;;6183962;23;20211;-84
2024/03/18 04:14:49;;;;;;;0.40;0.28;;;17.50;60.30;;;;;;6158876;23;20481;-84
2024/03/18 04:17:17;;;;;;;0.25;0.20;;;17.50;60.30;;;;;;6183647;23;20642;-84
2024/03/18 04:19:42;;;;;;;1.55;0.30;;;17.50;60.30;;;;;;6183545;23;20139;-84
2024/03/18 04:22:09;;;;;;;0.52;0.20;;;17.40;60.10;;;;;;6183586;23;20175;-84
2024/03/18 04:24:35;;;;;;;0.22;0.20;;;17.40;60.20;;;;;;6183737;23;20154;-84
2024/03/18 04:27:00;;;;;;;0.75;0.20;;;17.50;60.10;;;;;;6183673;23;20220;-85
2024/03/18 04:29:26;;;;;;;0.22;0.20;;;17.40;60.30;;;;;;6158592;23;20166;-84
2024/03/18 04:31:52;;;;;;;0.43;0.28;;;17.50;60.30;;;;;;6183180;23;20135;-84
2024/03/18 04:34:18;;;;;;;0.38;0.30;;;17.50;60.00;;;;;;6183924;23;20581;-84
2024/03/18 04:36:44;;;;;;;1.13;0.22;;;17.50;60.00;;;;;;6184952;23;20131;-84
2024/03/18 04:39:10;;;;;;;0.30;0.20;;;17.50;60.00;;;;;;6183598;23;20155;-84
2024/03/18 04:41:36;;;;;;;0.30;0.20;;;17.50;60.10;;;;;;6158649;23;20536;-84
2024/03/18 04:44:02;;;;;;;0.40;0.30;;;17.40;60.20;;;;;;6183308;23;20151;-84
2024/03/18 04:46:29;;;;;;;0.52;0.25;;;17.50;59.80;;;;;;6183404;23;20139;-84
2024/03/18 04:48:54;;;;;;;0.43;0.30;;;17.50;59.90;;;;;;6183692;23;20142;-84
2024/03/18 04:51:20;;;;;;;0.50;0.30;;;17.50;60.00;;;;;;6185278;23;20127;-85
2024/03/18 04:53:46;;;;;;;0.85;0.30;;;17.50;60.10;;;;;;6182612;23;20135;-84
2024/03/18 04:56:11;;;;;;;0.25;0.20;;;17.40;59.90;;;;;;6183227;23;20497;-84
2024/03/18 04:58:37;;;;;;;0.63;0.20;;;17.50;59.90;;;;;;6183330;23;20455;-84
2024/03/18 05:01:03;;;;;;;0.35;0.20;;;17.50;60.00;;;;;;6183415;23;20616;-84
2024/03/18 05:03:29;;;;;;;1.17;0.35;;;17.40;59.90;;;;;;6183487;23;20158;-84
2024/03/18 05:05:55;;;;;;;0.73;0.30;;;17.50;60.10;;;;;;6183533;23;20569;-84
2024/03/18 05:08:22;;;;;;;0.60;0.30;;;17.40;59.90;;;;;;6184754;23;20142;-84
2024/03/18 05:10:48;;;;;;;0.40;0.40;;;17.40;59.70;;;;;;6133067;23;20193;-84
2024/03/18 05:13:15;;;;;;;0.45;0.20;;;17.40;59.90;;;;;;6158739;23;20154;-83
2024/03/18 05:15:40;;;;;;;0.20;0.20;;;17.50;59.70;;;;;;6158586;23;20151;-84
2024/03/18 05:18:06;;;;;;;0.38;0.20;;;17.40;59.80;;;;;;6158308;23;20585;-84
2024/03/18 05:20:33;;;;;;;0.47;0.20;;;17.40;59.90;;;;;;6183217;23;20167;-84
2024/03/18 05:23:00;;;;;;;0.40;0.28;;;17.40;59.80;;;;;;6159892;23;20229;-85
2024/03/18 05:25:26;;;;;;;0.43;0.28;;;17.40;59.70;;;;;;6185691;23;20141;-85
2024/03/18 05:27:52;;;;;;;0.75;0.28;;;17.50;59.80;;;;;;6185589;23;20166;-84
2024/03/18 05:30:18;;;;;;;0.75;0.20;;;17.40;60.00;;;;;;6184973;23;20167;-84
2024/03/18 05:32:44;;;;;;;0.52;0.20;;;17.40;59.90;;;;;;6160071;23;20190;-84
2024/03/18 05:35:10;;;;;;;0.52;0.40;;;17.40;59.70;;;;;;6160550;23;20150;-84
2024/03/18 05:37:37;;;;;;;0.88;0.25;;;17.40;59.80;;;;;;6185144;23;20229;-85
2024/03/18 05:40:04;;;;;;;0.28;0.28;;;17.40;60.10;;;;;;6185133;23;20142;-85
2024/03/18 05:42:31;;;;;;;0.88;0.22;;;17.50;60.10;;;;;;6184790;23;20201;-84
2024/03/18 05:44:58;;;;;;;0.35;0.30;;;17.40;59.50;;;;;;6185121;23;20162;-84
2024/03/18 05:47:25;;;;;;;0.45;0.20;;;17.40;59.80;;;;;;6184849;23;20150;-84
2024/03/18 05:49:51;;;;;;;0.10;0.10;;;17.40;59.60;;;;;;6184907;23;20179;-84
2024/03/18 05:52:17;;;;;;;0.30;0.30;;;17.50;59.40;;;;;;6210052;23;20138;-85
2024/03/18 05:54:43;;;;;;;1.45;0.30;;;17.50;59.50;;;;;;6184484;23;20166;-84
2024/03/18 05:57:09;;;;;;;0.55;0.30;;;17.50;59.50;;;;;;6184003;23;20138;-84
2024/03/18 05:59:35;;;;;;;0.75;0.35;;;17.50;59.60;;;;;;6184655;23;20139;-83
2024/03/18 06:02:01;;;;;;;0.65;0.30;;;17.50;59.60;;;;;;6186394;23;20213;-84
2024/03/18 06:04:26;;;;;;;0.52;0.35;;;17.50;59.50;;;;;;6184815;23;20517;-84
2024/03/18 06:06:52;;;;;;;0.70;0.30;;;17.50;59.10;;;;;;6184748;23;20135;-84
2024/03/18 06:09:18;;;;;;;0.25;0.22;;;17.50;59.10;;;;;;6159809;23;20227;-84
2024/03/18 06:11:44;;;;;;;0.70;0.28;;;17.60;58.90;;;;;;6184887;23;20470;-84
2024/03/18 06:14:11;;;;;;;0.30;0.20;;;17.50;59.10;;;;;;6184820;23;20138;-85
2024/03/18 06:16:37;;;;;;;0.93;0.20;;;17.50;59.20;;;;;;6160186;23;20605;-84
2024/03/18 06:19:04;;;;;;;0.20;0.20;;;17.50;59.10;;;;;;6185927;23;20157;-84
2024/03/18 06:21:39;;;;;;;0.50;0.30;;;17.60;59.10;;;;;;6160243;23;20790;-84
2024/03/18 06:24:09;;;;;;;0.35;0.28;;;17.60;58.70;;;;;;6185666;23;20126;-83
2024/03/18 06:26:35;;;;;;;0.30;0.30;;;17.60;58.60;;;;;;6185909;23;20557;-84
2024/03/18 06:29:01;;;;;;;0.28;0.20;;;17.70;58.50;;;;;;6161420;23;20229;-84
2024/03/18 06:31:27;;;;;;;1.15;0.30;;;17.60;58.70;;;;;;6186151;23;20131;-83
2024/03/18 06:33:54;;;;;;;0.80;0.30;;;17.60;58.50;;;;;;6184952;23;20205;-84
2024/03/18 06:36:19;;;;;;;0.63;0.30;;;17.60;59.00;;;;;;6160975;23;20664;-84
2024/03/18 06:38:45;;;;;;;0.20;0.20;;;17.70;58.60;;;;;;6186003;23;20147;-83
2024/03/18 06:41:12;;;;;;;0.77;0.22;;;17.70;58.50;;;;;;6165648;23;20151;-84
2024/03/18 06:43:38;;;;;;;0.17;0.17;;;17.80;59.00;;;;;;6189640;23;20135;-84
2024/03/18 06:46:10;;;;;;;0.93;0.30;;;17.70;58.30;;;;;;6187200;23;20131;-83
2024/03/18 06:48:36;;;;;;;0.60;0.30;;;17.80;58.30;;;;;;6185829;23;20185;-84
2024/03/18 06:51:02;;;;;;;0.30;0.20;;;17.80;58.20;;;;;;6185509;23;20173;-84
2024/03/18 06:53:29;;;;;;;0.20;0.20;;;17.70;58.30;;;;;;6184556;23;20183;-85
2024/03/18 06:55:55;;;;;;;0.80;0.30;;;17.70;58.40;;;;;;6159513;23;20154;-84
2024/03/18 06:58:26;;;;;;;1.02;0.40;;;17.70;58.30;;;;;;6134875;23;20150;-84
2024/03/18 07:00:52;;;;;;;0.28;0.20;;;17.70;58.50;;;;;;6185838;23;20135;-84
2024/03/18 07:03:21;;;;;;;0.22;0.20;;;17.70;58.50;;;;;;6161496;23;20199;-83
2024/03/18 07:05:49;;;;;;;0.30;0.20;;;17.70;58.40;;;;;;6186065;23;20147;-83
2024/03/18 07:08:15;;;;;;;0.28;0.20;;;17.70;58.40;;;;;;6184160;23;20186;-84
2024/03/18 07:10:41;;;;;;;0.40;0.30;;;17.70;58.20;;;;;;6185163;23;20167;-84
2024/03/18 07:13:07;;;;;;;1.55;0.30;;;17.70;58.30;;;;;;6187185;23;20162;-84
2024/03/18 07:15:35;;;;;;;0.57;0.30;;;17.70;58.30;;;;;;6187114;23;20143;-84
2024/03/18 07:18:01;;;;;;;0.63;0.20;;;17.80;57.60;;;;;;6159431;23;20171;-84
2024/03/18 07:20:28;;;;;;;0.63;0.30;;;17.80;57.80;;;;;;6185618;23;20641;-84
2024/03/18 07:22:55;;;;;;;0.75;0.20;;;17.80;57.30;;;;;;6186115;23;20135;-84
2024/03/18 07:25:21;;;;;;;0.50;0.35;;;17.80;56.90;;;;;;6161375;23;20147;-84
2024/03/18 07:27:54;;;;;;;0.30;0.20;;;17.70;58.10;;;;;;6187226;23;20146;-84
2024/03/18 07:30:22;;;;;;;0.65;0.20;;;17.70;58.00;;;;;;6159434;23;20186;-84
2024/03/18 07:32:57;;;;;;;0.20;0.20;;;17.70;58.20;;;;;;6160854;23;20198;-84
2024/03/18 07:35:25;;;;;;;1.30;0.30;;;17.70;56.60;;;;;;6153719;23;20154;-85
2024/03/18 07:37:52;;;;;;;0.35;0.25;;;17.80;57.20;;;;;;6105167;23;20747;-85
2024/03/18 07:40:28;;;;;;;0.20;0.20;;;17.80;57.20;;;;;;6133045;23;20155;-84
2024/03/18 07:43:11;;;;;;;;;;;;;;;;;;;;;
2024/03/18 07:45:39;;;;;;;0.17;0.10;;;17.70;57.70;;;;;;6108318;23;20238;-85
2024/03/18 07:48:11;;;;;;;0.20;0.20;;;17.80;57.30;;;;;;6105024;23;20162;-84
2024/03/18 07:50:38;;;;;;;0.30;0.20;;;17.80;57.10;;;;;;6155413;23;20266;-84
2024/03/18 07:53:18;;;;;;;0.30;0.28;;;17.80;57.40;;;;;;6154222;23;20136;-84
2024/03/18 07:55:44;;;;;;;1.73;0.30;;;17.90;57.50;;;;;;6128599;23;20156;-84
2024/03/18 07:58:25;;;;;;;0.75;0.25;;;17.80;56.90;;;;;;6105931;23;20548;-84
2024/03/18 08:00:51;;;;;;;0.57;0.28;;;17.80;57.20;;;;;;6107448;23;20166;-84
2024/03/18 08:03:22;;;;;;;0.40;0.20;;;17.90;54.80;;;;;;6157940;23;20140;-83
2024/03/18 08:05:51;;;;;;;1.77;0.40;;;18.00;55.80;;;;;;6166938;23;20193;-83
2024/03/18 08:08:25;;;;;;;2.90;0.32;;;18.00;56.50;;;;;;6164878;23;20154;-83
2024/03/18 08:10:59;;;;;;;0.82;0.30;;;18.10;56.40;;;;;;6167714;23;20194;-84
2024/03/18 08:13:28;;;;;;;0.90;0.20;;;18.00;56.60;;;;;;6189426;23;20151;-84
2024/03/18 08:16:00;;;;;;;1.42;0.30;;;18.00;56.60;;;;;;6189556;23;20141;-83
2024/03/18 08:21:55;;;;;;;0.65;0.30;;;18.00;56.70;;;;;;6128639;23;20171;-83
2024/03/18 08:24:41;;;;;;;0.20;0.20;;;18.10;56.30;;;;;;6079451;23;20160;-85
2024/03/18 08:27:06;;;;;;;2.97;0.30;;;18.00;56.90;;;;;;6045592;23;20184;-83
2024/03/18 08:29:37;;;;;;;1.35;0.20;;;18.10;55.90;;;;;;6044567;23;20244;-83
2024/03/18 08:32:06;;;;;;;0.93;0.25;;;18.10;56.20;;;;;;5963640;23;21033;-83
2024/03/18 08:38:36;;;;;;;3.08;0.40;;;18.10;56.90;;;;;;5956013;24;20270;-84
2024/03/18 08:41:13;;;;;;;1.00;0.28;;;18.10;56.40;;;;;;5856020;24;20313;-83
2024/03/18 08:44:06;;;;;;;0.80;0.30;;;18.20;56.20;;;;;;5830552;24;20164;-82
2024/03/18 08:46:42;;;;;;;2.15;0.38;;;18.10;56.30;;;;;;5839183;24;20213;-84
2024/03/18 08:49:15;;;;;;;2.72;0.38;;;18.20;56.50;;;;;;5877203;24;20177;-84
2024/03/18 08:51:47;;;;;;;2.40;0.43;;;18.30;56.40;;;;;;5832913;24;20162;-83
2024/03/18 08:54:14;;;;;;;1.70;0.50;;;18.20;56.20;;;;;;5851483;24;20165;-83
2024/03/18 08:57:00;;;;;;;2.08;0.68;;;18.20;56.00;;;;;;5854071;24;20166;-84
2024/03/18 08:59:33;;;;;;;0.95;0.40;;;18.30;56.20;;;;;;5862408;24;20593;-83
2024/03/18 09:01:59;;;;;;;3.85;0.40;;;18.30;56.30;;;;;;5928113;24;20208;-83
2024/03/18 09:04:24;;;;;;;1.30;0.22;;;18.20;55.70;;;;;;5927865;24;20188;-83
2024/03/18 09:06:56;;;;;;;3.05;0.35;;;18.20;55.50;;;;;;5927709;24;20157;-84
2024/03/18 09:09:21;;;;;;;0.47;0.20;;;18.40;55.60;;;;;;5904773;24;20502;-84
2024/03/18 09:11:49;;;;;;;2.92;0.35;;;18.30;55.70;;;;;;5925911;24;20197;-83
2024/03/18 09:14:15;;;;;;;1.08;0.30;;;18.30;55.50;;;;;;5975137;23;20565;-84
2024/03/18 09:16:40;;;;;;;4.38;0.30;;;18.30;55.40;;;;;;6063904;23;20147;-84
2024/03/18 09:19:06;;;;;;;2.97;0.43;;;18.30;55.70;;;;;;6135243;23;20178;-85
2024/03/18 09:21:40;;;;;;;1.25;0.30;;;18.30;56.00;;;;;;6111603;23;20139;-85
2024/03/18 09:24:05;;;;;;;2.15;0.45;;;18.40;55.40;;;;;;6137262;23;20143;-84
2024/03/18 09:26:42;;;;;;;2.05;0.50;;;18.40;55.30;;;;;;6134888;23;20216;-86
2024/03/18 09:29:58;;;;;;;0.45;0.20;;;18.40;55.10;;;;;;6212751;23;20147;-86
2024/03/18 09:32:32;;;;;;;3.78;0.40;;;18.50;54.70;;;;;;6170933;23;20194;-86
2024/03/18 09:38:27;;;;;;;2.67;0.30;;;18.40;55.30;;;;;;6003615;23;20158;-85
2024/03/18 09:41:48;;;;;;;1.63;0.43;;;18.40;55.60;;;;;;5985181;24;20163;-84
2024/03/18 09:44:15;;;;;;;0.77;0.20;;;18.40;55.30;;;;;;5986604;23;20144;-84
2024/03/18 09:46:43;;;;;;;4.57;0.40;;;18.40;55.70;;;;;;6008528;23;20162;-84
2024/03/18 09:49:17;;;;;;;1.15;0.30;;;18.50;55.80;;;;;;6007432;23;20223;-84
2024/03/18 09:51:45;;;;;;;0.45;0.22;;;18.50;55.40;;;;;;6007580;23;20183;-84
2024/03/18 09:54:16;;;;;;;0.95;0.30;;;18.50;55.40;;;;;;6006923;23;20163;-83
2024/03/18 09:56:45;;;;;;;1.85;0.30;;;18.60;55.70;;;;;;5983922;24;20159;-82
2024/03/18 09:59:22;;;;;;;1.23;0.63;;;18.60;54.80;;;;;;5998852;23;20178;-82
2024/03/18 10:01:57;;;;;;;1.88;0.20;;;18.60;55.40;;;;;;6018445;23;20192;-82
2024/03/18 10:04:30;;;;;;;5.57;0.40;;;18.60;55.60;;;;;;6015560;23;20781;-84
2024/03/18 10:07:01;;;;;;;1.58;0.30;;;18.50;56.10;;;;;;6014340;23;20185;-86
2024/03/18 10:13:16;;;;;;;4.03;0.80;;;18.50;55.70;;;;;;5957729;24;20227;-86
2024/03/18 10:16:26;;;;;;;1.45;0.50;;;18.50;55.50;;;;;;5856841;24;20185;-85
2024/03/18 11:06:45;;;;;;;;;;;;;;;;;;;;;
2024/03/18 11:10:12;;;;;;;1.45;0.30;;;18.50;55.20;;;;;;6094390;23;20310;-82
2024/03/18 11:24:00;;;;;;;0.40;0.30;;;18.70;55.10;;;;;;6066269;23;20157;-83
2024/03/18 11:26:53;;;;;;;1.23;0.40;;;18.60;54.90;;;;;;6036309;23;20561;-84
2024/03/18 11:29:43;;;;;;;0.40;0.13;;;18.60;55.40;;;;;;6037580;23;20185;-84
2024/03/18 11:32:32;;;;;;;0.60;0.30;;;18.60;55.30;;;;;;6002264;23;20587;-84
2024/03/18 11:35:04;;;;;;;3.05;0.52;;;18.70;55.00;;;;;;6017405;23;20263;-83
2024/03/18 11:37:39;;;;;;;1.02;0.20;;;18.70;54.30;;;;;;6038440;23;20154;-83
2024/03/18 11:40:13;;;;;;;0.80;0.20;;;18.70;54.70;;;;;;6029071;23;20537;-84
2024/03/18 11:42:39;;;;;;;0.85;0.35;;;18.60;54.90;;;;;;6018517;23;20167;-84
2024/03/18 11:45:18;;;;;;;0.35;0.20;;;18.70;54.50;;;;;;6042898;23;20504;-84
2024/03/18 11:47:47;;;;;;;1.48;0.30;;;18.70;54.90;;;;;;6038146;23;20162;-84
2024/03/18 11:50:14;;;;;;;0.30;0.30;;;18.60;55.00;;;;;;6014489;23;20186;-84
2024/03/18 11:52:41;;;;;;;0.70;0.30;;;18.70;54.70;;;;;;5983877;23;20231;-84
2024/03/18 11:55:19;;;;;;;0.43;0.30;;;18.60;54.70;;;;;;6098962;23;20591;-82
2024/03/18 11:57:45;;;;;;;0.68;0.28;;;18.60;54.40;;;;;;6099369;23;20231;-82
2024/03/18 12:00:17;;;;;;;0.20;0.17;;;18.60;54.90;;;;;;6099410;23;20152;-82
2024/03/18 12:02:47;;;;;;;0.32;0.20;;;18.70;54.20;;;;;;6099460;23;20219;-84
2024/03/18 12:05:16;;;;;;;0.45;0.30;;;18.70;54.80;;;;;;6074876;23;20163;-84
2024/03/18 12:07:41;;;;;;;0.75;0.40;;;18.70;55.10;;;;;;6096990;23;20183;-84
2024/03/18 12:10:08;;;;;;;0.52;0.30;;;18.60;54.30;;;;;;6106575;23;20199;-83
2024/03/18 12:12:35;;;;;;;0.43;0.20;;;18.60;54.70;;;;;;6184412;23;20155;-83
2024/03/18 12:15:09;;;;;;;0.32;0.20;;;18.60;54.70;;;;;;6160352;23;20188;-83
2024/03/18 12:17:46;;;;;;;1.35;0.20;;;18.60;54.70;;;;;;6111767;23;20158;-82
2024/03/18 12:20:31;;;;;;;0.95;0.20;;;18.60;54.30;;;;;;6078438;23;20622;-82
2024/03/18 12:23:04;;;;;;;0.55;0.20;;;18.80;53.70;;;;;;6101542;23;20633;-83
2024/03/18 12:28:58;;;;;;;1.30;0.28;;;18.80;53.50;;;;;;6126485;23;20291;-83
2024/03/18 12:31:25;;;;;;;0.25;0.20;;;18.80;53.60;;;;;;6000926;23;20162;-83
2024/03/18 12:33:51;;;;;;;0.90;0.20;;;18.80;53.60;;;;;;5986736;23;20158;-83
2024/03/18 12:36:21;;;;;;;0.63;0.20;;;18.80;53.30;;;;;;5985757;23;20662;-84
2024/03/18 12:38:54;;;;;;;0.30;0.25;;;18.80;53.60;;;;;;5963987;23;20234;-84
2024/03/18 12:41:21;;;;;;;0.38;0.25;;;18.80;53.50;;;;;;5964096;23;20292;-83
2024/03/18 12:43:49;;;;;;;0.93;0.28;;;18.80;53.80;;;;;;5969830;23;20147;-82
2024/03/18 12:46:17;;;;;;;0.50;0.30;;;18.80;54.00;;;;;;6044168;23;20157;-83
2024/03/18 12:48:45;;;;;;;0.30;0.20;;;18.80;54.20;;;;;;6044291;23;20149;-83
2024/03/18 12:51:59;;;;;;;0.60;0.30;;;18.70;54.00;;;;;;6050143;23;20193;-83
2024/03/18 12:54:42;;;;;;;1.65;0.30;;;18.70;54.60;;;;;;5898334;24;20700;-84
2024/03/18 12:58:09;;;;;;;0.55;0.20;;;18.70;54.10;;;;;;5899104;24;20264;-82
2024/03/18 13:00:44;;;;;;;0.20;0.20;;;18.70;54.10;;;;;;5806835;24;20167;-84
2024/03/18 13:03:45;;;;;;;0.10;0.10;;;18.70;54.30;;;;;;5962557;24;20685;-83
2024/03/18 13:06:18;;;;;;;0.35;0.20;;;18.60;54.10;;;;;;5960361;24;20159;-83
2024/03/18 13:08:55;;;;;;;;;;;;;;;;;;;;;
2024/03/18 13:28:57;;;;;;;0.80;0.20;;;18.60;54.00;;;;;;5927394;24;20159;-83
2024/03/18 13:31:43;;;;;;;1.35;0.20;;;18.70;53.80;;;;;;6020767;23;20191;-83
2024/03/18 13:34:12;;;;;;;0.20;0.20;;;18.70;53.50;;;;;;6016186;23;20509;-83
2024/03/18 13:36:41;;;;;;;0.52;0.30;;;18.70;53.70;;;;;;6061259;23;20156;-83
2024/03/18 13:39:18;;;;;;;0.55;0.30;;;18.70;53.60;;;;;;6050532;23;20145;-84
2024/03/18 13:41:46;;;;;;;0.20;0.20;;;18.70;53.80;;;;;;6074295;23;20155;-84
2024/03/18 13:44:15;;;;;;;2.35;0.20;;;18.70;53.50;;;;;;6076280;23;20200;-84
2024/03/18 13:46:45;;;;;;;3.33;0.40;;;18.80;53.50;;;;;;6053657;23;20544;-83
2024/03/18 13:49:14;;;;;;;0.25;0.25;;;18.80;52.90;;;;;;6050982;23;20156;-82
2024/03/18 13:51:39;;;;;;;1.25;0.25;;;18.80;53.30;;;;;;6122778;23;20241;-83
2024/03/18 13:54:07;;;;;;;0.10;0.10;;;18.80;52.90;;;;;;6188012;23;20143;-83
2024/03/18 13:56:32;;;;;;;0.20;0.20;;;18.80;53.60;;;;;;6187083;23;20138;-83
2024/03/18 13:58:58;;;;;;;1.00;0.30;;;18.70;53.30;;;;;;6162263;23;20237;-83
2024/03/18 14:01:32;;;;;;;1.45;0.28;;;18.70;53.30;;;;;;6160860;23;20194;-84
2024/03/18 14:04:05;;;;;;;0.47;0.17;;;18.70;53.50;;;;;;6129142;23;20209;-83
2024/03/18 14:06:30;;;;;;;0.20;0.20;;;18.70;53.70;;;;;;6105747;23;20246;-83
2024/03/18 14:08:57;;;;;;;0.35;0.20;;;18.70;53.50;;;;;;6106176;23;20179;-83
2024/03/18 14:11:24;;;;;;;0.15;0.15;;;18.70;53.00;;;;;;6155634;23;20202;-84
2024/03/18 14:13:55;;;;;;;1.70;0.30;;;18.70;52.90;;;;;;6106252;23;20167;-83
2024/03/18 14:16:21;;;;;;;1.38;0.20;;;18.80;52.80;;;;;;6106201;23;20162;-83
2024/03/18 14:19:04;;;;;;;0.57;0.20;;;18.70;53.00;;;;;;6155496;23;20139;-83
2024/03/18 14:21:30;;;;;;;0.57;0.20;;;18.80;53.00;;;;;;6155917;23;20139;-83
2024/03/18 14:23:59;;;;;;;0.65;0.30;;;18.70;52.40;;;;;;6155480;23;20162;-84
2024/03/18 14:26:26;;;;;;;0.77;0.28;;;18.80;53.40;;;;;;6131883;23;20143;-83
2024/03/18 14:28:52;;;;;;;1.08;0.20;;;18.70;52.90;;;;;;6176725;23;20163;-83
2024/03/18 14:31:18;;;;;;;0.25;0.20;;;18.80;52.90;;;;;;6160501;23;20182;-83
2024/03/18 14:33:56;;;;;;;2.72;0.25;;;18.70;52.60;;;;;;6187970;23;20193;-83
2024/03/18 14:36:40;;;;;;;1.90;0.20;;;18.80;53.00;;;;;;6188992;23;20127;-84
2024/03/18 14:39:07;;;;;;;0.75;0.40;;;18.70;53.30;;;;;;6165071;23;20230;-85
2024/03/18 14:41:51;;;;;;;0.17;0.17;;;18.70;52.70;;;;;;6164006;23;20233;-83